Time;durP1;ratioP1;P1;durP2;ratioP2;P2;SDS_P1;SDS_P2;PMS_P1;PMS_P2;Temp;Humidity;BMP_temperature;BMP_pressure;BME280_temperature;BME280_humidity;BME280_pressure;Samples;Min_cycle;Max_cycle;Signal;HPM_P1;HPM_P2
2023/03/11 00:01:49;;;;;;;1.07;0.97;;;1.40;97.30;;;;;;5056262;28;20180;-87
2023/03/11 00:04:14;;;;;;;1.10;1.00;;;1.40;97.30;;;;;;5033892;28;20993;-85
2023/03/11 00:06:40;;;;;;;1.47;1.37;;;1.30;97.30;;;;;;5051487;28;20505;-87
2023/03/11 00:09:05;;;;;;;1.00;0.90;;;1.30;97.30;;;;;;5032926;28;20187;-85
2023/03/11 00:11:31;;;;;;;1.23;1.13;;;1.30;97.30;;;;;;5033239;28;20183;-88
2023/03/11 00:13:56;;;;;;;1.40;1.30;;;1.30;97.30;;;;;;5024732;28;20216;-86
2023/03/11 00:16:22;;;;;;;1.30;1.20;;;1.30;97.30;;;;;;5028350;28;20190;-86
2023/03/11 00:18:51;;;;;;;1.20;1.10;;;1.30;97.30;;;;;;5024472;28;20179;-86
2023/03/11 00:21:19;;;;;;;1.43;1.33;;;1.30;97.30;;;;;;5028991;28;20263;-86
2023/03/11 00:23:45;;;;;;;1.57;1.47;;;1.20;97.30;;;;;;5046965;28;20815;-87
2023/03/11 00:26:10;;;;;;;1.40;1.30;;;1.20;97.30;;;;;;5050539;28;20487;-86
2023/03/11 00:28:36;;;;;;;1.10;1.00;;;1.30;97.30;;;;;;5050612;28;20937;-87
2023/03/11 00:31:02;;;;;;;1.30;1.20;;;1.30;97.30;;;;;;5032735;28;20792;-86
2023/03/11 00:33:28;;;;;;;1.33;1.23;;;1.30;97.30;;;;;;5032027;28;20199;-87
2023/03/11 00:35:53;;;;;;;1.30;1.20;;;1.20;97.30;;;;;;5040917;28;20469;-84
2023/03/11 00:38:19;;;;;;;1.20;1.10;;;1.20;97.30;;;;;;5024349;28;20179;-86
2023/03/11 00:40:46;;;;;;;1.97;1.87;;;1.20;97.30;;;;;;5009200;28;20338;-86
2023/03/11 00:43:13;;;;;;;1.30;1.20;;;1.20;97.30;;;;;;5022408;28;20452;-85
2023/03/11 00:45:39;;;;;;;1.00;0.90;;;1.10;97.30;;;;;;5009454;28;20529;-84
2023/03/11 00:48:05;;;;;;;1.30;1.20;;;1.20;97.30;;;;;;5016585;28;20998;-86
2023/03/11 00:50:34;;;;;;;1.40;1.30;;;1.10;97.30;;;;;;5024358;28;20252;-86
2023/03/11 00:53:00;;;;;;;1.17;1.07;;;1.10;97.30;;;;;;5006485;28;20434;-86
2023/03/11 00:55:28;;;;;;;1.53;1.43;;;1.10;97.30;;;;;;5007640;28;20216;-87
2023/03/11 00:57:56;;;;;;;1.10;1.00;;;1.00;97.30;;;;;;5019051;28;20404;-87
2023/03/11 01:00:23;;;;;;;1.83;1.73;;;1.00;97.30;;;;;;4997741;28;20408;-87
2023/03/11 01:02:49;;;;;;;2.13;1.97;;;1.00;97.30;;;;;;5008419;28;20421;-88
2023/03/11 01:05:19;;;;;;;1.17;1.07;;;1.00;97.30;;;;;;5029328;28;20602;-87
2023/03/11 01:07:44;;;;;;;1.20;1.10;;;1.00;97.30;;;;;;5008002;28;20515;-86
2023/03/11 01:10:10;;;;;;;3.50;1.53;;;1.00;97.30;;;;;;5003826;28;20422;-86
2023/03/11 01:12:36;;;;;;;2.07;1.93;;;1.00;97.30;;;;;;4998687;28;20238;-88
2023/03/11 01:15:03;;;;;;;2.43;1.67;;;1.00;97.30;;;;;;5028001;28;20422;-89
2023/03/11 01:17:28;;;;;;;1.20;1.10;;;1.00;97.30;;;;;;5010300;28;20180;-88
2023/03/11 01:19:54;;;;;;;1.10;1.00;;;1.00;97.30;;;;;;5010615;28;20226;-89
2023/03/11 01:22:19;;;;;;;1.87;1.77;;;1.00;97.30;;;;;;5005400;28;20622;-89
2023/03/11 01:24:45;;;;;;;3.27;2.30;;;1.00;97.30;;;;;;5003650;28;20323;-89
2023/03/11 01:27:10;;;;;;;2.65;2.55;;;1.00;97.30;;;;;;5006168;28;20694;-89
2023/03/11 01:29:36;;;;;;;1.45;1.35;;;1.00;97.30;;;;;;5007174;28;20173;-89
2023/03/11 01:32:01;;;;;;;;;;;1.00;97.30;;;;;;5012471;28;20666;-89
2023/03/11 01:34:27;;;;;;;;;;;1.00;97.30;;;;;;5017927;28;20170;-88
2023/03/11 01:36:52;;;;;;;;;;;1.00;97.30;;;;;;5041935;28;20663;-88
2023/03/11 01:39:17;;;;;;;1.90;1.80;;;1.00;97.30;;;;;;5009105;28;20705;-90
2023/03/11 01:41:43;;;;;;;1.93;1.63;;;1.00;97.30;;;;;;5007995;28;20237;-90
2023/03/11 01:44:12;;;;;;;1.10;1.00;;;0.90;97.30;;;;;;5002824;28;20219;-90
2023/03/11 01:46:53;;;;;;;1.70;1.10;;;1.00;97.30;;;;;;5003910;28;20721;-89
2023/03/11 01:49:22;;;;;;;;;;;1.00;97.30;;;;;;5017829;28;20427;-90
2023/03/11 01:51:52;;;;;;;1.90;1.80;;;1.00;97.30;;;;;;5009541;28;20481;-89
2023/03/11 01:54:20;;;;;;;;;;;0.90;97.30;;;;;;5005516;28;20261;-90
2023/03/11 01:56:47;;;;;;;1.45;1.35;;;1.00;97.30;;;;;;5003728;28;20311;-90
2023/03/11 01:59:18;;;;;;;1.20;1.10;;;0.90;97.30;;;;;;4998223;28;20227;-91
2023/03/11 02:05:13;;;;;;;1.60;1.50;;;0.90;97.30;;;;;;5013148;28;20236;-89
2023/03/11 02:08:05;;;;;;;1.20;1.10;;;0.90;97.30;;;;;;5013724;28;20237;-88
2023/03/11 02:10:33;;;;;;;2.63;2.43;;;0.90;97.30;;;;;;5006411;28;20667;-91
2023/03/11 02:13:05;;;;;;;1.30;1.20;;;0.90;97.30;;;;;;5014078;28;20208;-91
2023/03/11 02:15:34;;;;;;;1.10;1.00;;;0.90;97.30;;;;;;5003151;28;20213;-89
2023/03/11 02:18:48;;;;;;;;;;;;;;;;;;;;;
2023/03/11 02:21:33;;;;;;;1.60;1.50;;;0.90;97.30;;;;;;5017637;28;20438;-91
2023/03/11 02:24:35;;;;;;;1.90;1.80;;;0.90;97.30;;;;;;5063490;22;20269;-90
2023/03/11 02:29:55;;;;;;;3.53;2.60;;;0.80;97.30;;;;;;5107204;27;20599;-89
2023/03/11 02:35:53;;;;;;;6.17;2.50;;;0.80;97.30;;;;;;5079492;28;20456;-91
2023/03/11 02:38:22;;;;;;;2.90;1.75;;;0.80;97.30;;;;;;5094524;28;20408;-90
2023/03/11 02:40:59;;;;;;;1.70;1.60;;;0.80;97.30;;;;;;5101015;28;20289;-90
2023/03/11 02:43:38;;;;;;;1.10;1.00;;;0.80;97.30;;;;;;5093165;28;20299;-89
2023/03/11 02:46:05;;;;;;;2.65;1.70;;;0.80;97.30;;;;;;5093200;28;20492;-92
2023/03/11 02:48:31;;;;;;;2.40;2.20;;;0.80;97.30;;;;;;5091459;28;20387;-90
2023/03/11 02:50:58;;;;;;;1.70;1.60;;;0.80;97.30;;;;;;5097246;28;20980;-89
2023/03/11 02:53:26;;;;;;;2.00;1.90;;;0.80;97.30;;;;;;5091528;28;20467;-89
2023/03/11 02:55:51;;;;;;;4.00;2.30;;;0.80;97.30;;;;;;5100550;28;20439;-90
2023/03/11 02:58:17;;;;;;;1.30;1.20;;;0.80;97.30;;;;;;5090472;28;20453;-89
2023/03/11 03:00:42;;;;;;;1.30;1.20;;;0.80;97.30;;;;;;5093871;28;20227;-90
2023/03/11 03:03:09;;;;;;;2.20;2.00;;;0.80;97.30;;;;;;5094360;28;20275;-89
2023/03/11 03:05:34;;;;;;;2.50;2.30;;;0.80;97.30;;;;;;5093562;28;20205;-91
2023/03/11 03:08:01;;;;;;;2.30;2.15;;;0.80;97.30;;;;;;5103065;28;20467;-90
2023/03/11 03:10:27;;;;;;;3.25;2.75;;;0.80;97.30;;;;;;5084524;28;20156;-91
2023/03/11 03:12:52;;;;;;;1.77;1.67;;;0.80;97.30;;;;;;5099557;28;20571;-90
2023/03/11 03:15:18;;;;;;;1.60;1.50;;;0.80;97.30;;;;;;5098380;28;20539;-90
2023/03/11 03:17:45;;;;;;;2.00;1.90;;;0.80;97.30;;;;;;5098132;28;20178;-89
2023/03/11 03:20:12;;;;;;;2.67;2.47;;;0.80;97.30;;;;;;5089495;28;20197;-90
2023/03/11 03:22:39;;;;;;;2.03;1.63;;;0.80;97.30;;;;;;5089681;28;20480;-90
2023/03/11 03:25:05;;;;;;;1.80;1.70;;;0.80;97.30;;;;;;5098651;28;20451;-91
2023/03/11 03:27:32;;;;;;;3.10;2.90;;;0.80;97.30;;;;;;5099355;28;20440;-90
2023/03/11 03:29:57;;;;;;;2.00;1.90;;;0.80;97.30;;;;;;5094143;28;20409;-91
2023/03/11 03:32:23;;;;;;;1.77;1.67;;;0.80;97.30;;;;;;5099409;28;20384;-91
2023/03/11 03:34:48;;;;;;;2.97;2.50;;;0.80;97.30;;;;;;5044891;22;20231;-90
2023/03/11 03:37:14;;;;;;;2.23;2.03;;;0.90;97.30;;;;;;5023446;28;20534;-89
2023/03/11 03:39:39;;;;;;;3.60;1.77;;;0.80;97.30;;;;;;5014642;28;20214;-90
2023/03/11 03:42:05;;;;;;;1.70;1.60;;;0.90;97.30;;;;;;5016921;28;20173;-90
2023/03/11 03:44:30;;;;;;;1.60;1.50;;;0.90;97.30;;;;;;5021316;28;20607;-92
2023/03/11 03:46:56;;;;;;;4.17;2.70;;;0.90;97.30;;;;;;5014614;28;20203;-91
2023/03/11 03:49:21;;;;;;;3.10;2.90;;;0.90;97.30;;;;;;5014416;28;20176;-91
2023/03/11 03:51:47;;;;;;;2.50;2.33;;;0.90;97.30;;;;;;5035302;28;20187;-91
2023/03/11 03:54:13;;;;;;;2.45;2.25;;;0.90;97.30;;;;;;5014284;28;20203;-90
2023/03/11 03:56:39;;;;;;;1.43;1.33;;;0.90;97.30;;;;;;5016068;28;20169;-91
2023/03/11 03:59:04;;;;;;;3.57;1.93;;;0.90;97.30;;;;;;5019044;28;20278;-90
2023/03/11 04:01:30;;;;;;;1.93;1.83;;;0.90;97.30;;;;;;5013502;28;20202;-90
2023/03/11 04:03:55;;;;;;;2.27;2.07;;;0.90;97.30;;;;;;5030822;28;20193;-90
2023/03/11 04:06:24;;;;;;;5.13;3.00;;;0.80;97.30;;;;;;5014537;28;20204;-90
2023/03/11 04:08:52;;;;;;;6.37;3.30;;;0.90;97.30;;;;;;5018476;28;20169;-88
2023/03/11 04:11:17;;;;;;;2.53;2.33;;;0.80;97.30;;;;;;5022189;28;20208;-89
2023/03/11 04:13:43;;;;;;;2.33;2.17;;;0.80;97.30;;;;;;5019543;28;20232;-90
2023/03/11 04:16:14;;;;;;;2.40;2.20;;;0.80;97.30;;;;;;5017765;28;20668;-91
2023/03/11 04:18:39;;;;;;;3.40;3.20;;;0.80;97.30;;;;;;5027341;28;20459;-92
2023/03/11 04:21:06;;;;;;;2.80;2.60;;;0.80;97.30;;;;;;5022812;28;20462;-90
2023/03/11 04:23:32;;;;;;;1.77;1.67;;;0.80;97.30;;;;;;5013811;28;20244;-91
2023/03/11 04:25:57;;;;;;;4.17;3.93;;;0.80;97.30;;;;;;5022073;28;20489;-91
2023/03/11 04:28:23;;;;;;;8.73;2.80;;;0.80;97.30;;;;;;5014427;28;20183;-92
2023/03/11 04:30:49;;;;;;;1.97;1.93;;;0.80;97.30;;;;;;5017568;28;20418;-90
2023/03/11 04:33:14;;;;;;;2.03;1.90;;;0.80;97.30;;;;;;5015219;28;20285;-91
2023/03/11 04:35:40;;;;;;;3.60;3.40;;;0.80;97.30;;;;;;5029573;28;20193;-91
2023/03/11 04:38:05;;;;;;;3.03;2.83;;;0.80;97.30;;;;;;5017075;28;20242;-91
2023/03/11 04:40:31;;;;;;;12.33;3.03;;;0.80;97.30;;;;;;5020308;28;20180;-90
2023/03/11 04:42:56;;;;;;;3.10;2.90;;;0.80;97.30;;;;;;5016367;28;20593;-91
2023/03/11 04:45:22;;;;;;;2.93;2.73;;;0.80;97.30;;;;;;5015049;28;20188;-91
2023/03/11 04:47:49;;;;;;;4.93;4.63;;;0.80;97.30;;;;;;5014177;28;20207;-90
2023/03/11 04:50:15;;;;;;;2.40;2.20;;;0.80;97.30;;;;;;5017548;28;20712;-91
2023/03/11 04:52:41;;;;;;;4.07;3.83;;;0.80;97.30;;;;;;5014087;28;20414;-89
2023/03/11 04:55:07;;;;;;;2.60;2.13;;;0.80;97.30;;;;;;5020299;28;20414;-90
2023/03/11 04:57:32;;;;;;;3.50;2.97;;;0.80;97.30;;;;;;5030748;28;20176;-91
2023/03/11 04:59:58;;;;;;;2.10;1.63;;;0.80;97.30;;;;;;5013281;28;20435;-90
2023/03/11 05:02:23;;;;;;;2.13;1.97;;;0.80;97.30;;;;;;5014381;28;20707;-91
2023/03/11 05:04:49;;;;;;;2.00;1.90;;;0.80;97.30;;;;;;5014430;28;20441;-91
2023/03/11 05:07:14;;;;;;;1.93;1.87;;;0.80;97.30;;;;;;5010658;28;20296;-90
2023/03/11 05:09:42;;;;;;;8.40;2.53;;;0.80;97.30;;;;;;5007554;28;20180;-90
2023/03/11 05:12:11;;;;;;;2.93;2.73;;;0.80;97.30;;;;;;5009116;28;20180;-91
2023/03/11 05:14:43;;;;;;;1.70;1.57;;;0.80;97.30;;;;;;5015018;28;20247;-91
2023/03/11 05:17:11;;;;;;;1.83;1.73;;;0.90;97.30;;;;;;5006522;28;21004;-90
2023/03/11 05:19:37;;;;;;;2.20;2.00;;;0.90;97.30;;;;;;5007593;28;20416;-90
2023/03/11 05:22:06;;;;;;;3.93;1.60;;;0.90;97.30;;;;;;5006042;28;20400;-92
2023/03/11 05:24:32;;;;;;;1.93;1.83;;;0.90;97.30;;;;;;5012504;28;20492;-92
2023/03/11 05:26:58;;;;;;;2.43;2.23;;;0.90;97.30;;;;;;5019965;28;20446;-91
2023/03/11 05:29:24;;;;;;;3.33;2.53;;;0.90;97.30;;;;;;5030652;28;20452;-90
2023/03/11 05:31:50;;;;;;;2.47;2.27;;;0.90;97.30;;;;;;5013976;28;20179;-92
2023/03/11 05:34:16;;;;;;;3.57;2.37;;;0.90;97.30;;;;;;5012983;28;20443;-92
2023/03/11 05:36:43;;;;;;;3.30;3.10;;;0.90;97.30;;;;;;5032625;28;20168;-91
2023/03/11 05:39:08;;;;;;;2.73;2.47;;;0.90;97.30;;;;;;5020500;28;20458;-92
2023/03/11 05:41:34;;;;;;;2.40;2.13;;;0.90;97.30;;;;;;5018674;28;20208;-91
2023/03/11 05:43:59;;;;;;;13.50;2.13;;;0.90;97.30;;;;;;5013840;28;20302;-91
2023/03/11 05:46:25;;;;;;;3.20;3.00;;;0.90;97.30;;;;;;5015864;28;20269;-92
2023/03/11 05:48:50;;;;;;;3.20;3.00;;;0.90;97.30;;;;;;5013365;28;20663;-92
2023/03/11 05:51:16;;;;;;;2.50;2.23;;;0.90;97.30;;;;;;5012952;28;20184;-92
2023/03/11 05:53:47;;;;;;;3.90;2.70;;;0.90;97.30;;;;;;5036858;28;20277;-92
2023/03/11 05:56:18;;;;;;;1.93;1.83;;;0.90;97.30;;;;;;5010787;28;20651;-92
2023/03/11 05:58:43;;;;;;;3.80;3.60;;;0.90;97.30;;;;;;5018069;28;20417;-92
2023/03/11 06:01:12;;;;;;;4.10;3.70;;;0.90;97.30;;;;;;5020684;28;20405;-92
2023/03/11 06:03:39;;;;;;;5.90;2.50;;;0.90;97.30;;;;;;5023885;28;20207;-92
2023/03/11 06:06:07;;;;;;;3.07;2.87;;;0.90;97.30;;;;;;5019622;28;20448;-91
2023/03/11 06:08:33;;;;;;;3.30;3.10;;;0.90;97.30;;;;;;5033335;28;20408;-92
2023/03/11 06:11:07;;;;;;;3.00;2.80;;;0.90;97.30;;;;;;5032550;28;20191;-92
2023/03/11 06:13:33;;;;;;;2.53;2.33;;;0.90;97.30;;;;;;5014066;28;20433;-92
2023/03/11 06:15:59;;;;;;;4.17;2.37;;;0.90;97.30;;;;;;5023405;28;20212;-91
2023/03/11 06:18:27;;;;;;;3.20;2.50;;;0.90;97.30;;;;;;5027659;28;20433;-92
2023/03/11 06:20:56;;;;;;;2.73;2.57;;;0.90;97.30;;;;;;5018866;28;20635;-91
2023/03/11 06:23:22;;;;;;;2.17;2.00;;;0.90;97.30;;;;;;5020082;28;20585;-91
2023/03/11 06:26:16;;;;;;;3.83;3.17;;;0.90;97.30;;;;;;5016484;28;20478;-91
2023/03/11 06:28:42;;;;;;;1.50;1.40;;;0.90;97.30;;;;;;5014739;28;20238;-91
2023/03/11 06:31:11;;;;;;;3.03;2.77;;;0.90;97.30;;;;;;5022626;28;20445;-91
2023/03/11 06:33:36;;;;;;;2.70;2.30;;;0.90;97.30;;;;;;5016026;28;20365;-91
2023/03/11 06:36:04;;;;;;;1.30;1.20;;;0.80;97.30;;;;;;5026575;28;20279;-91
2023/03/11 06:38:30;;;;;;;1.87;1.80;;;0.90;97.30;;;;;;5026425;28;20180;-91
2023/03/11 06:41:00;;;;;;;1.80;1.70;;;0.90;97.30;;;;;;5016007;28;20922;-90
2023/03/11 06:43:31;;;;;;;1.83;1.73;;;0.90;97.30;;;;;;5015643;28;20537;-90
2023/03/11 06:45:59;;;;;;;2.07;1.40;;;0.90;97.30;;;;;;5025927;28;20290;-91
2023/03/11 06:48:25;;;;;;;3.43;2.87;;;0.90;97.30;;;;;;5035053;28;20219;-90
2023/03/11 06:51:23;;;;;;;2.37;2.20;;;0.90;97.30;;;;;;5036402;28;20960;-90
2023/03/11 06:54:04;;;;;;;3.90;3.03;;;0.90;97.30;;;;;;5014224;28;20238;-91
2023/03/11 06:56:45;;;;;;;2.37;1.70;;;0.90;97.30;;;;;;5015796;28;20497;-90
2023/03/11 06:59:35;;;;;;;3.27;3.03;;;0.90;97.30;;;;;;5013212;28;20427;-89
2023/03/11 07:02:06;;;;;;;1.53;1.43;;;0.90;97.30;;;;;;5009346;28;20476;-91
2023/03/11 07:04:34;;;;;;;2.43;2.27;;;0.90;97.30;;;;;;5009161;28;20428;-90
2023/03/11 07:07:06;;;;;;;5.33;2.23;;;0.90;97.30;;;;;;5014416;28;21064;-89
2023/03/11 07:12:46;;;;;;;2.63;2.27;;;0.90;97.30;;;;;;5019289;28;20398;-91
2023/03/11 07:15:46;;;;;;;1.30;1.20;;;0.90;97.30;;;;;;5009188;28;20442;-90
2023/03/11 07:18:46;;;;;;;2.50;2.30;;;0.90;97.30;;;;;;4963016;28;20287;-90
2023/03/11 07:21:34;;;;;;;1.53;1.27;;;1.00;97.30;;;;;;5011978;28;20810;-91
2023/03/11 07:24:24;;;;;;;2.80;2.60;;;1.00;97.30;;;;;;5043982;22;20507;-90
2023/03/11 07:27:14;;;;;;;3.00;2.20;;;1.00;97.30;;;;;;5071954;28;20455;-90
2023/03/11 07:29:55;;;;;;;1.50;1.40;;;1.00;97.30;;;;;;5073217;28;20503;-90
2023/03/11 07:32:34;;;;;;;2.10;1.87;;;1.00;97.30;;;;;;5076931;28;20223;-89
2023/03/11 07:35:15;;;;;;;1.73;1.63;;;1.00;97.30;;;;;;5090874;22;20499;-90
2023/03/11 07:40:34;;;;;;;1.83;1.73;;;1.00;97.30;;;;;;5095587;27;20396;-91
2023/03/11 07:43:05;;;;;;;2.77;2.57;;;1.00;97.30;;;;;;5100840;28;20319;-91
2023/03/11 07:45:34;;;;;;;1.40;1.30;;;1.00;97.30;;;;;;5077120;28;20192;-89
2023/03/11 07:48:06;;;;;;;4.53;1.93;;;1.00;97.30;;;;;;5074388;28;20516;-88
2023/03/11 07:50:45;;;;;;;1.60;1.50;;;1.00;97.30;;;;;;5075232;28;20932;-89
2023/03/11 07:53:44;;;;;;;1.40;1.30;;;1.00;97.30;;;;;;5074495;28;20523;-88
2023/03/11 07:56:24;;;;;;;1.30;1.20;;;1.10;97.30;;;;;;5072402;28;20199;-89
2023/03/11 07:59:04;;;;;;;2.23;1.50;;;1.10;97.30;;;;;;5068506;28;20411;-88
2023/03/11 08:01:56;;;;;;;2.07;1.90;;;1.10;97.30;;;;;;5074740;28;20427;-89
2023/03/11 08:04:25;;;;;;;2.33;2.17;;;1.10;97.30;;;;;;5045364;23;20308;-88
2023/03/11 08:07:23;;;;;;;8.33;3.80;;;1.10;97.30;;;;;;5038509;28;20489;-91
2023/03/11 08:09:56;;;;;;;2.80;2.17;;;1.20;97.30;;;;;;4999023;28;20426;-90
2023/03/11 08:12:25;;;;;;;2.33;2.13;;;1.20;97.30;;;;;;5034959;28;20414;-89
2023/03/11 08:14:53;;;;;;;3.63;1.67;;;1.30;97.30;;;;;;5035932;28;20456;-90
2023/03/11 08:17:27;;;;;;;1.70;1.60;;;1.30;97.30;;;;;;5040643;28;20409;-90
2023/03/11 08:19:53;;;;;;;3.73;3.57;;;1.30;97.30;;;;;;5038269;28;20416;-89
2023/03/11 08:22:25;;;;;;;4.93;2.80;;;1.30;97.30;;;;;;5041385;28;20430;-89
2023/03/11 08:24:55;;;;;;;2.13;1.97;;;1.40;97.30;;;;;;5044001;28;20699;-91
2023/03/11 08:27:20;;;;;;;4.10;2.10;;;1.40;97.30;;;;;;5034898;28;20468;-90
2023/03/11 08:29:46;;;;;;;2.40;2.20;;;1.40;97.30;;;;;;5037312;28;20767;-90
2023/03/11 08:32:11;;;;;;;3.27;1.83;;;1.40;97.30;;;;;;5045776;28;20190;-90
2023/03/11 08:34:38;;;;;;;2.63;1.93;;;1.40;97.30;;;;;;5036135;28;20195;-91
2023/03/11 08:37:03;;;;;;;2.07;1.93;;;1.40;97.30;;;;;;5050932;28;20681;-91
2023/03/11 08:39:29;;;;;;;3.67;3.43;;;1.40;97.30;;;;;;5037150;28;20401;-90
2023/03/11 08:41:54;;;;;;;22.70;3.23;;;1.50;97.30;;;;;;5041259;28;20278;-91
2023/03/11 08:44:26;;;;;;;1.50;1.40;;;1.50;97.30;;;;;;5042213;28;20203;-88
2023/03/11 08:47:05;;;;;;;3.93;3.00;;;1.50;97.30;;;;;;5037092;28;20287;-91
2023/03/11 08:49:44;;;;;;;3.57;2.40;;;1.50;97.30;;;;;;5044749;28;20491;-90
2023/03/11 08:52:15;;;;;;;2.23;1.97;;;1.50;97.30;;;;;;5041524;28;20428;-90
2023/03/11 08:55:27;;;;;;;1.87;1.77;;;1.40;97.30;;;;;;5052089;23;20492;-91
2023/03/11 08:57:55;;;;;;;6.23;1.30;;;1.40;97.30;;;;;;5065493;28;20791;-88
2023/03/11 09:01:05;;;;;;;2.27;2.10;;;1.40;97.30;;;;;;5050837;28;20534;-89
2023/03/11 09:04:07;;;;;;;1.20;1.10;;;1.30;97.30;;;;;;5043163;28;20488;-91
2023/03/11 09:07:03;;;;;;;1.60;1.50;;;1.40;97.30;;;;;;5070762;28;20425;-92
2023/03/11 09:09:36;;;;;;;1.63;1.53;;;1.40;97.30;;;;;;5028166;28;20446;-90
2023/03/11 09:12:06;;;;;;;1.63;1.53;;;1.30;97.30;;;;;;5054533;28;20424;-92
2023/03/11 09:17:55;;;;;;;1.10;1.00;;;1.40;97.30;;;;;;5046468;28;20407;-92
2023/03/11 09:20:27;;;;;;;1.03;0.93;;;1.40;97.30;;;;;;5041799;28;20413;-92
2023/03/11 09:25:25;;;;;;;2.47;2.27;;;1.30;97.30;;;;;;5056901;28;20481;-91
2023/03/11 09:28:15;;;;;;;1.53;1.43;;;1.30;97.30;;;;;;5034529;28;20557;-93
2023/03/11 09:30:47;;;;;;;1.57;1.53;;;1.40;97.30;;;;;;5040042;28;20400;-91
2023/03/11 09:33:15;;;;;;;2.07;1.93;;;1.40;97.30;;;;;;5059468;28;20437;-90
2023/03/11 09:36:03;;;;;;;2.13;1.97;;;1.50;97.30;;;;;;5044307;28;20418;-90
2023/03/11 09:38:52;;;;;;;1.17;1.07;;;1.60;97.30;;;;;;5062825;28;20531;-91
2023/03/11 09:41:33;;;;;;;1.50;1.40;;;1.60;97.30;;;;;;5026185;28;20427;-92
2023/03/11 09:44:44;;;;;;;3.07;1.90;;;1.60;97.30;;;;;;5038207;28;20427;-92
2023/03/11 09:47:35;;;;;;;1.27;1.17;;;1.60;97.30;;;;;;5047378;28;20453;-91
2023/03/11 09:50:24;;;;;;;1.20;1.10;;;1.70;97.30;;;;;;5054544;28;20448;-90
2023/03/11 09:53:07;;;;;;;1.00;0.90;;;1.70;97.30;;;;;;5028440;28;20525;-91
2023/03/11 09:55:44;;;;;;;4.77;2.03;;;1.80;97.30;;;;;;5044453;28;20934;-92
2023/03/11 09:58:18;;;;;;;1.40;1.30;;;1.80;97.30;;;;;;5058963;28;20436;-91
2023/03/11 10:00:45;;;;;;;1.10;1.00;;;1.90;97.30;;;;;;5034154;28;20511;-92
2023/03/11 10:03:23;;;;;;;1.30;1.20;;;2.00;97.30;;;;;;5041135;28;20979;-91
2023/03/11 10:05:53;;;;;;;1.10;1.00;;;1.90;97.30;;;;;;5058841;28;20413;-90
2023/03/11 10:08:29;;;;;;;1.60;1.50;;;1.90;97.30;;;;;;5040624;28;20563;-91
2023/03/11 10:11:21;;;;;;;1.73;1.57;;;1.90;97.30;;;;;;5038021;28;20861;-91
2023/03/11 10:14:00;;;;;;;2.67;2.47;;;2.00;97.30;;;;;;5030718;28;20461;-90
2023/03/11 10:16:36;;;;;;;6.23;2.70;;;2.10;97.30;;;;;;5045092;28;20314;-91
2023/03/11 10:19:21;;;;;;;1.30;1.20;;;2.10;97.30;;;;;;5040349;28;20790;-89
2023/03/11 10:21:59;;;;;;;1.50;1.40;;;2.10;97.30;;;;;;5057544;28;20436;-91
2023/03/11 10:24:44;;;;;;;13.93;2.77;;;2.20;97.30;;;;;;5038675;28;20443;-90
2023/03/11 10:27:18;;;;;;;3.37;2.83;;;2.20;97.30;;;;;;5035693;28;20488;-90
2023/03/11 10:30:11;;;;;;;1.80;1.73;;;2.20;97.30;;;;;;5032279;28;20226;-91
2023/03/11 10:33:24;;;;;;;2.27;2.10;;;2.20;97.30;;;;;;5046810;28;20963;-91
2023/03/11 10:35:55;;;;;;;1.87;1.77;;;2.20;97.30;;;;;;5015595;28;20466;-90
2023/03/11 10:38:25;;;;;;;1.30;1.20;;;2.10;97.30;;;;;;5022505;28;20422;-89
2023/03/11 10:40:55;;;;;;;1.30;1.20;;;2.00;97.30;;;;;;5039698;28;20224;-90
2023/03/11 10:43:30;;;;;;;1.70;1.60;;;1.90;97.30;;;;;;5028165;28;20449;-90
2023/03/11 10:45:56;;;;;;;1.83;1.73;;;1.80;97.30;;;;;;5032970;28;20431;-91
2023/03/11 10:48:24;;;;;;;1.93;1.83;;;1.70;97.30;;;;;;5041359;28;20421;-90
2023/03/11 10:51:13;;;;;;;1.93;1.10;;;1.70;97.30;;;;;;5042970;28;20176;-89
2023/03/11 10:53:56;;;;;;;1.97;1.73;;;1.70;97.30;;;;;;5057217;28;20440;-90
2023/03/11 10:56:31;;;;;;;1.30;1.20;;;1.70;97.30;;;;;;5039067;28;20417;-89
2023/03/11 10:58:57;;;;;;;2.00;1.90;;;1.70;97.30;;;;;;5038360;28;20412;-90
2023/03/11 11:01:23;;;;;;;2.67;2.47;;;1.80;97.30;;;;;;5045456;28;20400;-90
2023/03/11 11:03:59;;;;;;;1.53;1.43;;;1.90;97.30;;;;;;5041683;28;20465;-90
2023/03/11 11:06:31;;;;;;;2.00;1.93;;;1.90;97.30;;;;;;5050489;28;20547;-89
2023/03/11 11:09:14;;;;;;;1.30;1.20;;;1.90;97.30;;;;;;5036266;28;20422;-89
2023/03/11 11:11:41;;;;;;;4.40;1.83;;;2.00;97.30;;;;;;5038799;28;20595;-89
2023/03/11 11:14:08;;;;;;;2.07;1.93;;;1.90;97.30;;;;;;5051730;28;20813;-90
2023/03/11 11:16:34;;;;;;;1.10;1.00;;;2.00;97.30;;;;;;5034200;28;20453;-89
2023/03/11 11:19:06;;;;;;;1.47;1.37;;;2.00;97.30;;;;;;5053594;28;20449;-90
2023/03/11 11:21:42;;;;;;;4.23;2.20;;;2.00;97.30;;;;;;5052611;28;20478;-90
2023/03/11 11:24:25;;;;;;;1.53;1.40;;;2.10;97.30;;;;;;5047007;28;20452;-90
2023/03/11 11:27:14;;;;;;;1.13;1.03;;;2.10;97.30;;;;;;5064998;28;20456;-89
2023/03/11 11:29:39;;;;;;;1.30;1.20;;;2.10;97.30;;;;;;5056442;28;20554;-89
2023/03/11 11:32:18;;;;;;;1.93;1.83;;;2.10;97.30;;;;;;5055890;28;20413;-89
2023/03/11 11:35:02;;;;;;;2.07;1.93;;;2.10;97.30;;;;;;5047796;28;20236;-89
2023/03/11 11:37:30;;;;;;;1.60;1.50;;;2.10;97.30;;;;;;5055259;28;20420;-90
2023/03/11 11:40:30;;;;;;;5.23;3.07;;;2.10;97.30;;;;;;5051849;28;20422;-89
2023/03/11 11:43:21;;;;;;;2.93;1.83;;;2.00;97.30;;;;;;5042154;28;20931;-88
2023/03/11 11:46:00;;;;;;;1.57;1.47;;;2.00;97.30;;;;;;5041699;28;20449;-88
2023/03/11 11:48:37;;;;;;;1.77;1.67;;;2.20;97.30;;;;;;5054330;28;20949;-87
2023/03/11 11:51:14;;;;;;;2.87;1.97;;;2.50;97.30;;;;;;5052636;28;20480;-88
2023/03/11 11:54:00;;;;;;;2.50;1.97;;;2.70;97.30;;;;;;5054665;28;20457;-88
2023/03/11 11:56:26;;;;;;;4.20;2.50;;;3.00;97.30;;;;;;5049801;28;20953;-88
2023/03/11 11:58:54;;;;;;;2.67;2.47;;;3.00;97.30;;;;;;5053036;28;20413;-88
2023/03/11 12:01:47;;;;;;;1.73;1.47;;;3.00;97.30;;;;;;5052722;28;20211;-87
2023/03/11 12:04:37;;;;;;;2.40;1.80;;;3.00;97.30;;;;;;5066162;28;20436;-87
2023/03/11 12:07:16;;;;;;;1.83;1.73;;;3.00;97.30;;;;;;5043081;28;20465;-87
2023/03/11 12:10:10;;;;;;;2.23;2.07;;;3.00;97.30;;;;;;5068307;28;20417;-87
2023/03/11 12:13:14;;;;;;;1.60;1.50;;;2.90;97.30;;;;;;5059920;28;20427;-88
2023/03/11 12:16:00;;;;;;;1.20;1.10;;;2.80;97.30;;;;;;5072447;28;20435;-87
2023/03/11 12:18:34;;;;;;;5.90;1.80;;;2.70;97.30;;;;;;5074040;28;20290;-88
2023/03/11 12:21:22;;;;;;;2.67;1.83;;;2.60;97.30;;;;;;5067328;28;20449;-87
2023/03/11 12:24:33;;;;;;;1.37;1.27;;;2.60;97.30;;;;;;5050189;28;20491;-90
2023/03/11 12:27:08;;;;;;;3.33;2.30;;;2.50;97.30;;;;;;5051352;28;20501;-88
2023/03/11 12:29:40;;;;;;;3.30;1.97;;;2.50;97.30;;;;;;5052458;28;20454;-89
2023/03/11 12:32:06;;;;;;;3.33;2.10;;;2.50;97.30;;;;;;5054150;28;20417;-89
2023/03/11 12:34:34;;;;;;;1.93;1.60;;;2.60;97.30;;;;;;5044141;28;20440;-90
2023/03/11 12:37:11;;;;;;;1.33;1.30;;;2.70;97.30;;;;;;5044307;28;20427;-89
2023/03/11 12:39:36;;;;;;;1.43;1.33;;;2.70;97.30;;;;;;5055797;28;20407;-90
2023/03/11 12:42:23;;;;;;;1.30;1.20;;;2.80;97.30;;;;;;5053481;28;20415;-88
2023/03/11 12:44:50;;;;;;;15.07;2.33;;;2.80;97.30;;;;;;5066145;28;20277;-89
2023/03/11 12:47:21;;;;;;;1.30;1.20;;;2.80;97.30;;;;;;5047353;28;20464;-90
2023/03/11 12:50:14;;;;;;;3.47;1.23;;;2.80;97.30;;;;;;5052087;28;20871;-89
2023/03/11 12:52:52;;;;;;;1.37;1.27;;;2.80;97.30;;;;;;5052807;28;20406;-90
2023/03/11 12:55:21;;;;;;;1.87;1.77;;;2.70;97.30;;;;;;5050581;28;20422;-90
2023/03/11 12:57:46;;;;;;;4.03;1.67;;;2.70;97.30;;;;;;5055217;28;20418;-90
2023/03/11 13:00:21;;;;;;;1.20;1.10;;;2.70;97.30;;;;;;5070432;28;20953;-88
2023/03/11 13:03:09;;;;;;;1.70;1.30;;;2.60;97.30;;;;;;5068682;28;20199;-90
2023/03/11 13:05:59;;;;;;;1.30;1.20;;;2.60;97.30;;;;;;5070144;28;20421;-90
2023/03/11 13:08:45;;;;;;;1.00;0.90;;;2.60;97.30;;;;;;5050310;28;20281;-90
2023/03/11 13:11:32;;;;;;;1.30;1.20;;;2.70;97.30;;;;;;5053545;28;20958;-90
2023/03/11 13:14:24;;;;;;;2.25;2.05;;;2.70;97.30;;;;;;5071174;28;20436;-90
2023/03/11 13:16:49;;;;;;;2.80;1.60;;;2.80;97.30;;;;;;5047951;28;20807;-90
2023/03/11 13:19:34;;;;;;;3.17;1.50;;;2.80;97.30;;;;;;5054263;28;20433;-90
2023/03/11 13:22:05;;;;;;;1.40;1.30;;;2.80;97.30;;;;;;5053683;28;20208;-90
2023/03/11 13:24:31;;;;;;;1.30;1.20;;;2.80;97.30;;;;;;5044653;28;20469;-91
2023/03/11 13:27:00;;;;;;;1.43;1.33;;;2.80;97.30;;;;;;5050788;28;20885;-90
2023/03/11 13:30:01;;;;;;;4.17;3.20;;;2.90;97.30;;;;;;5051935;28;20204;-89
2023/03/11 13:33:04;;;;;;;2.60;1.87;;;2.90;97.30;;;;;;5061862;28;20414;-90
2023/03/11 13:36:06;;;;;;;1.30;1.20;;;3.00;97.30;;;;;;5045725;28;20492;-92
2023/03/11 13:39:12;;;;;;;3.07;1.87;;;3.10;97.30;;;;;;5041994;28;20519;-90
2023/03/11 13:41:43;;;;;;;2.10;1.00;;;3.20;97.30;;;;;;5035146;28;20472;-89
2023/03/11 13:44:27;;;;;;;3.27;1.83;;;3.40;97.30;;;;;;5043980;28;20465;-89
2023/03/11 13:46:58;;;;;;;4.13;1.60;;;3.50;97.30;;;;;;5029806;28;20559;-90
2023/03/11 13:50:01;;;;;;;1.10;1.00;;;3.50;97.30;;;;;;5050291;28;20966;-89
2023/03/11 13:52:45;;;;;;;2.30;2.13;;;3.40;96.30;;;;;;5070536;28;20462;-89
2023/03/11 13:55:19;;;;;;;2.30;1.57;;;3.30;96.30;;;;;;5036894;28;20200;-89